Time;durP1;ratioP1;P1;durP2;ratioP2;P2;SDS_P1;SDS_P2;PMS_P1;PMS_P2;Temp;Humidity;BMP_temperature;BMP_pressure;BME280_temperature;BME280_humidity;BME280_pressure;Samples;Min_cycle;Max_cycle;Signal;HPM_P1;HPM_P2
2022/05/15 00:00:37;;;;;;;16.48;4.88;;;;;;;13.09;100.00;98242.97;4984234;28;20822;-55
2022/05/15 00:00:38;;;;;;;14.63;5.00;;;;;;;13.24;100.00;98248.41;4983746;28;20042;-54
2022/05/15 00:03:05;;;;;;;17.98;5.47;;;;;;;13.04;100.00;98252.81;4983864;28;20604;-53
2022/05/15 00:05:31;;;;;;;26.70;5.40;;;;;;;12.82;100.00;98252.13;4983850;28;20038;-56
2022/05/15 00:07:56;;;;;;;17.27;5.30;;;;;;;12.96;100.00;98251.47;4984209;28;20034;-56
2022/05/15 00:10:22;;;;;;;17.90;5.30;;;;;;;12.93;100.00;98253.31;4983267;28;20026;-55
2022/05/15 00:12:47;;;;;;;18.23;5.50;;;;;;;13.00;100.00;98253.03;4984248;28;20022;-55
2022/05/15 00:15:13;;;;;;;13.75;4.88;;;;;;;12.71;100.00;98250.00;4983634;28;20042;-54
2022/05/15 00:17:38;;;;;;;14.95;4.85;;;;;;;12.54;100.00;98254.22;4984062;28;20041;-54
2022/05/15 00:20:04;;;;;;;17.33;5.18;;;;;;;12.58;100.00;98252.31;4983476;28;20033;-55
2022/05/15 00:22:34;;;;;;;16.58;4.85;;;;;;;12.64;100.00;98251.19;4983627;28;20124;-53
2022/05/15 00:25:03;;;;;;;16.35;4.63;;;;;;;12.51;100.00;98259.56;4983974;28;20030;-56
2022/05/15 00:27:28;;;;;;;18.30;5.53;;;;;;;12.34;100.00;98259.50;4982999;28;20126;-55
2022/05/15 00:29:53;;;;;;;17.35;5.10;;;;;;;12.57;100.00;98255.00;4983617;28;20117;-56
2022/05/15 00:32:19;;;;;;;23.13;5.15;;;;;;;12.38;100.00;98258.44;4997092;28;20385;-54
2022/05/15 00:34:44;;;;;;;17.05;5.30;;;;;;;12.42;100.00;98254.75;4983280;28;20029;-54
2022/05/15 00:37:09;;;;;;;16.15;4.88;;;;;;;12.20;100.00;98248.78;4983226;28;20038;-54
2022/05/15 00:39:35;;;;;;;18.35;5.50;;;;;;;12.04;100.00;98249.44;4983864;28;20026;-55
2022/05/15 00:42:00;;;;;;;21.27;5.38;;;;;;;12.14;100.00;98250.75;4983279;28;20074;-53
2022/05/15 00:44:25;;;;;;;16.95;5.00;;;;;;;12.11;100.00;98248.28;4983660;28;20045;-54
2022/05/15 00:46:50;;;;;;;18.67;5.22;;;;;;;12.26;100.00;98253.72;4983068;28;20679;-55
2022/05/15 00:49:16;;;;;;;17.58;4.70;;;;;;;12.44;100.00;98252.94;4983092;28;20026;-54
2022/05/15 00:51:46;;;;;;;17.45;5.35;;;;;;;12.33;100.00;98255.16;4983009;28;20038;-55
2022/05/15 00:54:19;;;;;;;18.95;5.10;;;;;;;12.06;100.00;98252.00;4983574;28;20423;-54
2022/05/15 00:56:50;;;;;;;19.98;5.30;;;;;;;11.76;100.00;98250.59;4982319;28;20492;-55
2022/05/15 00:59:19;;;;;;;17.90;4.57;;;;;;;12.51;100.00;98253.50;4983550;28;20030;-55
2022/05/15 01:01:45;;;;;;;18.73;5.60;;;;;;;12.34;100.00;98246.41;4982534;28;20133;-54
2022/05/15 01:04:11;;;;;;;16.27;4.97;;;;;;;12.52;100.00;98240.34;4982984;28;20122;-55
2022/05/15 01:06:37;;;;;;;19.90;4.97;;;;;;;12.71;100.00;98240.34;4985751;28;20045;-53
2022/05/15 01:09:04;;;;;;;20.60;5.35;;;;;;;12.10;100.00;98249.19;4983028;28;20064;-54
2022/05/15 01:11:32;;;;;;;17.85;5.22;;;;;;;12.05;100.00;98251.13;4982608;28;20049;-55
2022/05/15 01:13:59;;;;;;;15.27;4.90;;;;;;;12.10;100.00;98243.94;4982735;28;20022;-54
2022/05/15 01:16:25;;;;;;;16.17;5.00;;;;;;;12.14;100.00;98250.75;4982292;28;20049;-55
2022/05/15 01:18:56;;;;;;;17.00;5.05;;;;;;;11.86;100.00;98240.59;4982518;28;20015;-56
2022/05/15 01:21:53;;;;;;;14.68;5.07;;;;;;;11.87;100.00;98241.44;4982328;28;20038;-54
2022/05/15 01:24:18;;;;;;;14.63;4.70;;;;;;;11.74;100.00;98238.47;4982946;28;20029;-54
2022/05/15 01:26:44;;;;;;;16.40;4.72;;;;;;;12.35;100.00;98237.63;4982082;28;20217;-53
2022/05/15 01:29:09;;;;;;;17.98;5.28;;;;;;;11.98;100.00;98233.16;4982404;28;20037;-54
2022/05/15 01:31:37;;;;;;;13.43;4.70;;;;;;;11.97;100.00;98232.31;4982587;28;20069;-55
2022/05/15 01:34:04;;;;;;;17.85;5.10;;;;;;;12.43;100.00;98230.31;4982347;28;20031;-55
2022/05/15 01:36:30;;;;;;;15.57;5.10;;;;;;;12.21;100.00;98234.81;4981868;28;20052;-54
2022/05/15 01:38:56;;;;;;;15.60;4.47;;;;;;;12.84;100.00;98230.16;4982406;28;20030;-54
2022/05/15 01:41:23;;;;;;;14.82;4.93;;;;;;;12.24;100.00;98229.41;4981977;28;20036;-56
2022/05/15 01:43:52;;;;;;;13.93;4.70;;;;;;;12.10;100.00;98230.88;4982573;28;20062;-54
2022/05/15 01:46:19;;;;;;;13.95;4.10;;;;;;;12.77;100.00;98227.91;4981889;28;20719;-54
2022/05/15 01:48:44;;;;;;;14.75;4.47;;;;;;;12.69;100.00;98223.03;4982398;28;20393;-55
2022/05/15 01:51:09;;;;;;;17.15;4.85;;;;;;;12.11;100.00;98235.19;4982098;28;20536;-55
2022/05/15 01:53:35;;;;;;;14.93;4.63;;;;;;;12.43;100.00;98235.53;4983821;28;20719;-54
2022/05/15 01:56:03;;;;;;;17.40;4.80;;;;;;;11.63;100.00;98238.09;4981912;28;20049;-54
2022/05/15 01:58:28;;;;;;;12.88;4.43;;;;;;;11.86;100.00;98235.38;4982116;28;20060;-54
2022/05/15 02:00:53;;;;;;;14.80;4.72;;;;;;;11.98;100.00;98233.16;4981384;28;20073;-54
2022/05/15 02:03:18;;;;;;;18.42;5.47;;;;;;;12.42;100.00;98239.06;4982092;28;20061;-53
2022/05/15 02:05:44;;;;;;;16.92;4.65;;;;;;;11.92;100.00;98239.50;4981484;28;20125;-54
2022/05/15 02:08:09;;;;;;;12.63;4.60;;;;;;;12.10;100.00;98238.72;4981237;28;20027;-55
2022/05/15 02:10:35;;;;;;;13.73;4.43;;;;;;;12.89;100.00;98241.28;4981881;28;20860;-55
2022/05/15 02:13:01;;;;;;;12.38;3.95;;;;;;;12.91;100.00;98236.81;4982211;28;20030;-54
2022/05/15 02:15:26;;;;;;;16.20;4.85;;;;;;;12.24;100.00;98239.88;4981351;28;20042;-55
2022/05/15 02:17:52;;;;;;;13.98;4.75;;;;;;;11.93;100.00;98241.22;4982002;28;20037;-56
2022/05/15 02:20:18;;;;;;;14.82;4.40;;;;;;;11.88;100.00;98243.16;4981007;28;20484;-55
2022/05/15 02:22:43;;;;;;;16.15;4.70;;;;;;;12.67;100.00;98237.97;4981751;28;20128;-56
2022/05/15 02:25:11;;;;;;;12.93;4.50;;;;;;;12.76;100.00;98236.72;4981472;28;20144;-54
2022/05/15 02:27:37;;;;;;;15.68;4.85;;;;;;;12.49;100.00;98230.03;4981935;28;20033;-55
2022/05/15 02:30:04;;;;;;;15.48;4.97;;;;;;;11.86;100.00;98239.75;4984003;28;20022;-55
2022/05/15 02:32:29;;;;;;;17.42;4.90;;;;;;;11.81;100.00;98242.53;4981643;28;20049;-56
2022/05/15 02:34:54;;;;;;;12.63;4.35;;;;;;;12.05;100.00;98229.38;4981955;28;20378;-55
2022/05/15 02:37:20;;;;;;;17.90;4.72;;;;;;;11.94;100.00;98233.28;4981537;28;20045;-55
2022/05/15 02:39:45;;;;;;;16.15;4.95;;;;;;;12.12;100.00;98238.66;4982107;28;20022;-54
2022/05/15 02:42:10;;;;;;;12.70;4.57;;;;;;;12.07;100.00;98241.47;4981562;28;20066;-54
2022/05/15 02:44:36;;;;;;;15.80;4.82;;;;;;;11.88;100.00;98237.91;4981743;28;20106;-54
2022/05/15 02:47:02;;;;;;;19.02;4.97;;;;;;;11.64;100.00;98238.03;4981087;28;20042;-55
2022/05/15 02:52:12;;;;;;;21.23;5.60;;;;;;;11.58;100.00;98240.91;4980911;28;20041;-56
2022/05/15 02:54:37;;;;;;;15.77;4.78;;;;;;;11.35;100.00;98242.66;4981960;28;20030;-54
2022/05/15 02:57:05;;;;;;;17.20;4.80;;;;;;;11.18;100.00;98248.56;4980868;28;20042;-54
2022/05/15 02:59:31;;;;;;;19.92;5.32;;;;;;;11.27;100.00;98247.38;4981708;28;20910;-55
2022/05/15 03:01:56;;;;;;;14.88;4.72;;;;;;;11.43;100.00;98246.72;4981109;28;20053;-56
2022/05/15 03:04:22;;;;;;;16.00;5.20;;;;;;;11.42;100.00;98245.06;4982059;28;20057;-54
2022/05/15 03:06:47;;;;;;;21.13;5.35;;;;;;;11.54;100.00;98250.63;4980972;28;20065;-54
2022/05/15 03:09:12;;;;;;;18.08;5.22;;;;;;;11.23;100.00;98239.69;4981581;28;20037;-55
2022/05/15 03:11:38;;;;;;;17.85;5.05;;;;;;;11.19;100.00;98246.81;4981492;28;20038;-55
2022/05/15 03:14:04;;;;;;;19.40;5.38;;;;;;;11.03;100.00;98248.31;4981404;28;20022;-55
2022/05/15 03:16:31;;;;;;;23.45;5.75;;;;;;;10.93;100.00;98248.66;4980842;28;20202;-54
2022/05/15 03:18:56;;;;;;;16.30;4.88;;;;;;;10.80;100.00;98247.44;4981437;28;20034;-56
2022/05/15 03:21:30;;;;;;;19.58;5.00;;;;;;;10.86;100.00;98247.19;4983995;28;20034;-55
2022/05/15 03:24:07;;;;;;;18.48;4.97;;;;;;;11.44;100.00;98248.44;4985388;28;20448;-55
2022/05/15 03:26:36;;;;;;;20.63;5.40;;;;;;;11.42;100.00;98245.06;4984621;28;20034;-55
2022/05/15 03:29:03;;;;;;;16.75;5.13;;;;;;;11.59;100.00;98245.19;4984978;28;20034;-54
2022/05/15 03:31:28;;;;;;;16.20;4.88;;;;;;;11.37;100.00;98240.84;4983932;28;20046;-55
2022/05/15 03:33:54;;;;;;;15.50;4.63;;;;;;;11.70;100.00;98250.00;4984719;28;20026;-54
2022/05/15 03:36:19;;;;;;;16.40;4.85;;;;;;;11.63;100.00;98252.00;4984098;28;20038;-56
2022/05/15 03:38:46;;;;;;;12.27;4.22;;;;;;;11.86;100.00;98253.66;4985039;28;20045;-54
2022/05/15 03:41:12;;;;;;;15.82;5.05;;;;;;;11.27;100.00;98255.19;4972412;28;20642;-54
2022/05/15 03:43:37;;;;;;;12.88;4.90;;;;;;;11.09;100.00;98255.91;4985053;28;20080;-55
2022/05/15 03:46:05;;;;;;;16.38;5.28;;;;;;;11.15;100.00;98259.13;4984034;28;20038;-57
2022/05/15 03:48:30;;;;;;;13.50;4.32;;;;;;;11.73;100.00;98255.94;4984886;28;20045;-55
2022/05/15 03:50:56;;;;;;;11.80;4.72;;;;;;;11.75;100.00;98248.03;4983765;28;20042;-56
2022/05/15 03:53:23;;;;;;;15.85;5.50;;;;;;;11.25;100.00;98261.38;4987280;28;20041;-54
2022/05/15 03:55:49;;;;;;;17.58;5.53;;;;;;;11.66;100.00;98259.72;4983321;28;20424;-55
2022/05/15 03:58:14;;;;;;;14.25;5.13;;;;;;;11.77;100.00;98257.50;4982508;28;20492;-54
2022/05/15 04:00:41;;;;;;;13.43;4.38;;;;;;;12.04;100.00;98254.69;4983904;28;20428;-54
2022/05/15 04:03:07;;;;;;;14.40;4.70;;;;;;;11.99;100.00;98256.63;4984453;28;20546;-55
2022/05/15 04:05:33;;;;;;;16.98;5.30;;;;;;;12.13;100.00;98249.06;4983652;28;20558;-55
2022/05/15 04:07:58;;;;;;;14.13;4.78;;;;;;;11.88;100.00;98248.38;4984337;28;20121;-55
2022/05/15 04:10:25;;;;;;;13.30;4.78;;;;;;;12.30;100.00;98256.16;4984572;28;20693;-56
2022/05/15 04:12:51;;;;;;;12.80;4.40;;;;;;;13.29;100.00;98252.50;4984335;28;20057;-55
2022/05/15 04:15:16;;;;;;;15.43;4.75;;;;;;;13.44;100.00;98244.84;4983873;28;20030;-54
2022/05/15 04:17:47;;;;;;;16.20;5.07;;;;;;;12.98;100.00;98247.88;4984050;28;20086;-55
2022/05/15 04:20:15;;;;;;;20.20;5.70;;;;;;;12.81;100.00;98240.81;4983747;28;20500;-55
2022/05/15 04:22:41;;;;;;;13.57;4.80;;;;;;;13.07;100.00;98239.56;4983680;28;20062;-55
2022/05/15 04:25:08;;;;;;;12.65;4.68;;;;;;;13.19;100.00;98248.63;4983795;28;20065;-54
2022/05/15 04:27:33;;;;;;;10.05;4.28;;;;;;;13.21;100.00;98238.91;4983808;28;20116;-54
2022/05/15 04:29:59;;;;;;;14.30;4.82;;;;;;;13.16;100.00;98243.53;4984040;28;20104;-55
2022/05/15 04:32:25;;;;;;;10.13;4.20;;;;;;;13.53;100.00;98252.28;4982616;28;20034;-55
2022/05/15 04:34:50;;;;;;;14.15;4.88;;;;;;;13.65;100.00;98251.66;4984023;28;20033;-55
2022/05/15 04:37:15;;;;;;;8.98;4.15;;;;;;;14.41;100.00;98248.69;4983343;28;20115;-54
2022/05/15 04:39:41;;;;;;;13.13;4.25;;;;;;;14.38;100.00;98246.19;4983881;28;20030;-55
2022/05/15 04:42:07;;;;;;;11.38;4.50;;;;;;;14.35;100.00;98258.63;4983141;28;20469;-55
2022/05/15 04:44:33;;;;;;;12.60;4.63;;;;;;;14.03;100.00;98253.28;4983791;28;20026;-57
2022/05/15 04:46:58;;;;;;;11.68;4.43;;;;;;;13.71;100.00;98252.28;4982693;28;20116;-55
2022/05/15 04:49:23;;;;;;;13.10;4.53;;;;;;;14.15;100.00;98254.41;4983711;28;20177;-54
2022/05/15 04:51:49;;;;;;;9.98;4.68;;;;;;;13.85;100.00;98260.31;4983028;28;20092;-56
2022/05/15 04:54:14;;;;;;;10.70;4.45;;;;;;;14.07;100.00;98271.41;4984242;28;20053;-54
2022/05/15 04:56:40;;;;;;;12.23;4.55;;;;;;;14.43;100.00;98262.56;4982903;28;20042;-54
2022/05/15 04:59:05;;;;;;;14.82;5.03;;;;;;;14.16;100.00;98258.75;4983147;28;20031;-54
2022/05/15 05:01:31;;;;;;;13.63;4.90;;;;;;;14.77;100.00;98266.03;4983038;28;20038;-55
2022/05/15 05:03:57;;;;;;;12.32;4.55;;;;;;;15.43;100.00;98269.44;4983548;28;20033;-55
2022/05/15 05:06:24;;;;;;;14.50;4.45;;;;;;;15.51;100.00;98267.25;4982704;28;20101;-55
2022/05/15 05:08:50;;;;;;;11.57;4.35;;;;;;;15.53;100.00;98264.50;4983548;28;20026;-55
2022/05/15 05:11:15;;;;;;;11.77;4.53;;;;;;;15.77;100.00;98270.19;4982447;28;20052;-55
2022/05/15 05:13:41;;;;;;;10.18;4.22;;;;;;;15.75;100.00;98270.28;4981639;28;20041;-56
2022/05/15 05:16:06;;;;;;;10.90;4.38;;;;;;;15.30;100.00;98263.19;4982592;28;20133;-55
2022/05/15 05:18:32;;;;;;;9.77;4.18;;;;;;;15.38;100.00;98271.47;4982744;28;20030;-55
2022/05/15 05:20:57;;;;;;;11.85;4.38;;;;;;;15.56;100.00;98270.44;4982321;28;20046;-56
2022/05/15 05:23:23;;;;;;;13.35;4.65;;;;;;;15.56;100.00;98275.69;4982609;28;20041;-57
2022/05/15 05:25:48;;;;;;;10.77;4.35;;;;;;;15.76;100.00;98281.63;4982325;28;20077;-56
2022/05/15 05:28:15;;;;;;;16.27;4.97;;;;;;;15.87;100.00;98276.59;4982088;28;20030;-53
2022/05/15 05:30:40;;;;;;;11.73;4.65;;;;;;;16.18;100.00;98269.53;4982304;28;20528;-54
2022/05/15 05:33:06;;;;;;;13.43;5.53;;;;;;;16.69;100.00;98277.84;4984792;28;20046;-53
2022/05/15 05:35:32;;;;;;;9.55;4.18;;;;;;;17.09;100.00;98274.53;4981903;28;20160;-54
2022/05/15 05:37:58;;;;;;;11.82;4.30;;;;;;;18.15;100.00;98270.28;4980939;28;20285;-57
2022/05/15 05:40:23;;;;;;;9.85;4.03;;;;;;;19.14;100.00;98268.78;4982174;28;20522;-57
2022/05/15 05:42:48;;;;;;;14.63;4.07;;;;;;;21.30;89.16;98270.03;4982366;28;20023;-57
2022/05/15 05:45:14;;;;;;;9.50;3.75;;;;;;;23.03;68.23;98267.03;4982513;28;20467;-56
2022/05/15 05:47:40;;;;;;;8.88;3.75;;;;;;;23.81;64.45;98272.53;4982273;28;20029;-57
2022/05/15 05:50:08;;;;;;;9.30;3.35;;;;;;;25.94;55.96;98271.88;4982306;28;20022;-57
2022/05/15 05:52:36;;;;;;;9.00;3.67;;;;;;;26.94;52.13;98271.53;4982211;28;20034;-57
2022/05/15 05:55:03;;;;;;;9.48;3.78;;;;;;;26.15;53.07;98270.69;4982198;28;20022;-57
2022/05/15 05:57:28;;;;;;;8.65;3.42;;;;;;;29.06;45.25;98274.53;4981564;28;20046;-56
2022/05/15 05:59:53;;;;;;;10.13;3.70;;;;;;;27.56;44.54;98271.28;4982124;28;20424;-57
2022/05/15 06:02:19;;;;;;;7.18;3.47;;;;;;;28.88;44.13;98272.09;4981848;28;20054;-55
2022/05/15 06:04:50;;;;;;;5.80;3.28;;;;;;;28.91;42.76;98276.25;4982641;28;20080;-56
2022/05/15 06:07:18;;;;;;;8.10;3.40;;;;;;;30.76;39.96;98277.19;4981707;28;20038;-56
2022/05/15 06:09:45;;;;;;;7.13;3.20;;;;;;;30.87;38.40;98276.72;4982195;28;20081;-55
2022/05/15 06:12:13;;;;;;;8.23;3.28;;;;;;;28.83;41.32;98279.81;4981372;28;20054;-54
2022/05/15 06:14:39;;;;;;;7.70;3.10;;;;;;;27.36;41.15;98283.28;4982235;28;20121;-55
2022/05/15 06:17:04;;;;;;;7.82;3.00;;;;;;;30.01;38.00;98278.88;4981687;28;20042;-56
2022/05/15 06:19:31;;;;;;;7.63;2.70;;;;;;;29.52;38.81;98276.50;4982330;28;20034;-55
2022/05/15 06:21:57;;;;;;;7.25;3.17;;;;;;;30.02;36.84;98277.88;4981530;28;20044;-55
2022/05/15 06:24:22;;;;;;;5.72;3.10;;;;;;;30.90;36.75;98262.88;4980041;28;20022;-56
2022/05/15 06:26:48;;;;;;;7.22;3.17;;;;;;;30.30;37.03;98269.22;4979503;28;20034;-56
2022/05/15 06:29:13;;;;;;;8.38;3.20;;;;;;;31.40;36.53;98271.19;4981866;28;20415;-56
2022/05/15 06:31:38;;;;;;;13.30;3.00;;;;;;;31.78;35.54;98270.16;4981597;28;20121;-56
2022/05/15 06:34:04;;;;;;;8.00;2.97;;;;;;;31.81;34.17;98267.09;4981542;28;20030;-56
2022/05/15 06:36:30;;;;;;;5.93;2.80;;;;;;;31.75;34.44;98270.56;4981645;28;20038;-55
2022/05/15 06:38:56;;;;;;;5.75;2.70;;;;;;;30.79;34.79;98266.06;4981693;28;20044;-56
2022/05/15 06:41:21;;;;;;;7.93;2.60;;;;;;;31.43;34.31;98262.75;4981491;28;20047;-57
2022/05/15 06:43:47;;;;;;;8.55;2.85;;;;;;;29.02;37.65;98266.00;4981661;28;20026;-55
2022/05/15 06:46:12;;;;;;;8.05;2.90;;;;;;;30.71;36.18;98258.91;4980779;28;20508;-56
2022/05/15 06:48:39;;;;;;;7.60;2.90;;;;;;;32.21;33.71;98254.00;4981781;28;20117;-56
2022/05/15 06:51:05;;;;;;;6.40;2.60;;;;;;;29.20;36.64;98260.38;4981065;28;20041;-55
2022/05/15 06:53:31;;;;;;;6.70;2.67;;;;;;;32.27;33.47;98254.03;4981351;28;20034;-57
2022/05/15 06:58:40;;;;;;;6.90;2.80;;;;;;;30.50;35.63;98262.31;4985044;28;20129;-55
2022/05/15 07:01:06;;;;;;;6.43;2.90;;;;;;;31.12;34.62;98255.75;4984778;28;20411;-55
2022/05/15 07:03:31;;;;;;;5.10;2.60;;;;;;;31.01;34.90;98260.75;4985357;28;20262;-56
2022/05/15 07:05:56;;;;;;;10.27;2.60;;;;;;;33.57;31.78;98258.91;4985027;28;20074;-55
2022/05/15 07:08:22;;;;;;;6.13;2.78;;;;;;;33.67;31.55;98258.53;4981154;28;20069;-56
2022/05/15 07:10:47;;;;;;;6.10;2.40;;;;;;;32.58;32.49;98265.50;4982905;28;20045;-55
2022/05/15 07:13:13;;;;;;;9.10;2.63;;;;;;;34.90;30.13;98264.34;4983847;28;20369;-55
2022/05/15 07:15:39;;;;;;;5.80;2.60;;;;;;;33.07;32.61;98269.06;4984399;28;20511;-55
2022/05/15 07:18:08;;;;;;;7.97;2.80;;;;;;;33.91;31.60;98257.97;4984801;28;20129;-57
2022/05/15 07:20:34;;;;;;;6.25;2.80;;;;;;;33.05;32.67;98263.91;4984373;28;20196;-55
2022/05/15 07:23:00;;;;;;;7.47;2.72;;;;;;;33.13;32.32;98263.75;4984713;28;20080;-56
2022/05/15 07:25:25;;;;;;;6.65;2.63;;;;;;;34.37;30.77;98259.84;4984804;28;20461;-54
2022/05/15 07:27:51;;;;;;;7.57;2.53;;;;;;;30.78;34.81;98258.16;4984002;28;20584;-55
2022/05/15 07:30:16;;;;;;;7.03;2.80;;;;;;;34.68;31.15;98255.66;4984507;28;20022;-55
2022/05/15 07:32:41;;;;;;;7.43;2.60;;;;;;;34.53;31.16;98260.44;4982706;28;20488;-57
2022/05/15 07:35:08;;;;;;;6.30;2.88;;;;;;;34.49;31.33;98256.50;4980974;28;20026;-57
2022/05/15 07:37:33;;;;;;;6.15;2.70;;;;;;;32.07;33.15;98253.91;4981336;28;20025;-56
2022/05/15 07:39:59;;;;;;;6.10;2.72;;;;;;;34.13;30.90;98242.34;4983996;28;20034;-56
2022/05/15 07:42:24;;;;;;;4.85;2.50;;;;;;;33.65;31.45;98247.91;4984273;28;20033;-57
2022/05/15 07:44:50;;;;;;;7.15;2.80;;;;;;;34.43;31.28;98249.19;4984546;28;20651;-56
2022/05/15 07:47:15;;;;;;;8.57;2.80;;;;;;;35.10;30.68;98244.47;4985497;28;20065;-58
2022/05/15 07:49:42;;;;;;;5.97;2.97;;;;;;;33.25;31.78;98249.66;4984317;28;20034;-56
2022/05/15 07:52:07;;;;;;;6.85;2.70;;;;;;;34.90;30.67;98231.00;4983930;28;20030;-57
2022/05/15 07:54:33;;;;;;;10.15;2.50;;;;;;;34.59;30.21;98235.22;4984500;28;20026;-55
2022/05/15 07:56:59;;;;;;;9.50;2.78;;;;;;;32.87;33.27;98239.28;4987996;28;20125;-56
2022/05/15 07:59:24;;;;;;;5.65;2.55;;;;;;;35.60;29.28;98239.22;4984671;28;20104;-56
2022/05/15 08:01:50;;;;;;;8.60;2.80;;;;;;;33.18;33.10;98239.66;4982933;28;20440;-56
2022/05/15 08:04:18;;;;;;;9.13;2.70;;;;;;;33.64;31.33;98235.41;4982012;28;20261;-55
2022/05/15 08:09:26;;;;;;;7.70;2.30;;;;;;;34.77;31.49;98245.41;4984296;28;20041;-56
2022/05/15 08:11:52;;;;;;;9.77;2.40;;;;;;;34.24;32.08;98238.19;4982771;28;20046;-56
2022/05/15 08:14:18;;;;;;;8.43;3.10;;;;;;;35.54;30.10;98236.56;4981583;28;20293;-57
2022/05/15 08:16:43;;;;;;;6.43;2.75;;;;;;;35.35;29.84;98233.75;4983554;28;20784;-57
2022/05/15 08:24:38;;;;;;;6.93;2.85;;;;;;;34.38;30.89;98233.59;4978043;28;20097;-58
2022/05/15 08:27:04;;;;;;;10.10;3.15;;;;;;;36.10;28.16;98230.34;4982642;28;20038;-58
2022/05/15 08:29:30;;;;;;;8.57;2.83;;;;;;;35.63;30.04;98235.25;4998064;28;20062;-57
2022/05/15 08:31:56;;;;;;;6.82;2.80;;;;;;;35.46;29.29;98229.53;4981992;28;20045;-58
2022/05/15 08:34:21;;;;;;;6.67;2.90;;;;;;;35.01;29.71;98234.94;4980811;28;20026;-57
2022/05/15 08:36:46;;;;;;;8.30;2.75;;;;;;;36.64;27.41;98231.50;4980037;28;20324;-57
2022/05/15 08:39:13;;;;;;;8.43;3.10;;;;;;;33.90;30.99;98234.63;4982511;28;20073;-58
2022/05/15 08:41:40;;;;;;;8.13;2.80;;;;;;;35.22;29.65;98228.38;4982946;28;20038;-56
2022/05/15 08:44:09;;;;;;;11.65;3.00;;;;;;;35.04;28.89;98216.34;4983304;28;20042;-57
2022/05/15 08:46:40;;;;;;;14.82;3.03;;;;;;;34.90;31.20;98215.56;4982568;28;20046;-58
2022/05/15 08:49:11;;;;;;;6.68;2.67;;;;;;;34.64;29.89;98221.88;4983255;28;20030;-58
2022/05/15 08:51:42;;;;;;;5.57;2.67;;;;;;;35.51;29.39;98216.13;4982815;28;20065;-57
2022/05/15 08:54:10;;;;;;;7.80;2.70;;;;;;;33.98;30.54;98222.78;4982696;28;20058;-59
2022/05/15 08:56:45;;;;;;;6.95;2.60;;;;;;;34.68;28.63;98220.44;4982094;28;20468;-58
2022/05/15 08:59:20;;;;;;;7.72;2.70;;;;;;;34.41;30.06;98216.94;4983236;28;20034;-58
2022/05/15 09:01:50;;;;;;;11.65;2.60;;;;;;;33.46;29.87;98227.06;4982071;28;20030;-57
2022/05/15 09:04:15;;;;;;;10.18;2.30;;;;;;;32.77;28.16;98229.69;4980297;28;20022;-58
2022/05/15 09:06:48;;;;;;;7.90;2.22;;;;;;;33.80;26.91;98215.25;4980535;28;20042;-57
2022/05/15 09:09:47;;;;;;;10.30;2.80;;;;;;;33.02;28.93;98226.47;4980621;28;20029;-57
2022/05/15 09:12:19;;;;;;;8.80;2.47;;;;;;;34.67;27.63;98213.34;4982190;28;20034;-58
2022/05/15 09:14:50;;;;;;;;;;;;;;;34.30;26.93;98212.16;4983254;28;20018;-58
2022/05/15 09:17:45;;;;;;;6.65;2.72;;;;;;;34.84;25.83;98216.44;4981839;28;19924;-58
2022/05/15 09:20:28;;;;;;;7.13;2.38;;;;;;;34.15;25.61;98213.19;4988534;28;20113;-57
2022/05/15 09:23:07;;;;;;;8.00;2.50;;;;;;;35.09;24.54;98223.81;4982087;28;20038;-58
2022/05/15 09:25:35;;;;;;;7.90;2.03;;;;;;;33.32;25.28;98231.59;4981020;28;20516;-56
2022/05/15 09:28:02;;;;;;;8.43;2.28;;;;;;;34.02;25.02;98223.19;4980984;28;20407;-56
2022/05/15 09:30:38;;;;;;;7.70;2.10;;;;;;;34.92;24.97;98220.78;4980503;28;20047;-58
2022/05/15 09:33:04;;;;;;;6.80;2.28;;;;;;;35.38;25.19;98211.59;4982332;28;20553;-56
2022/05/15 09:35:32;;;;;;;6.05;2.20;;;;;;;34.75;26.61;98218.53;4982227;28;20045;-58
2022/05/15 09:43:30;;;;;;;7.95;2.65;;;;;;;32.30;28.50;98220.44;4981505;28;20053;-55
2022/05/15 09:43:33;;;;;;;5.50;2.05;;;;;;;34.33;25.18;98217.97;4982957;28;20113;-55
2022/05/15 09:46:06;;;;;;;5.25;2.25;;;;;;;33.55;24.96;98207.72;4982369;28;20060;-54
2022/05/15 09:48:52;;;;;;;7.57;2.30;;;;;;;32.71;27.23;98210.75;4983212;28;20030;-56
2022/05/15 09:51:54;;;;;;;8.98;2.75;;;;;;;34.11;25.04;98211.09;4974208;28;20190;-56
2022/05/15 09:54:34;;;;;;;7.32;2.88;;;;;;;31.81;26.96;98211.28;4950295;28;20042;-58
2022/05/15 09:57:14;;;;;;;8.52;2.50;;;;;;;34.62;24.04;98213.13;4975503;28;20092;-58
2022/05/15 09:59:40;;;;;;;6.32;2.65;;;;;;;31.36;26.51;98207.94;4979287;28;20069;-54
2022/05/15 10:02:17;;;;;;;10.23;3.17;;;;;;;33.69;24.32;98203.22;4977082;28;20069;-55
2022/05/15 10:04:48;;;;;;;6.82;2.42;;;;;;;34.44;24.96;98205.66;4979012;28;20853;-57
2022/05/15 10:07:28;;;;;;;7.97;2.85;;;;;;;32.60;27.55;98199.47;4977194;28;20057;-56
2022/05/15 10:09:54;;;;;;;7.63;2.83;;;;;;;34.21;25.52;98184.50;4978752;28;20160;-56
2022/05/15 10:12:20;;;;;;;7.28;2.65;;;;;;;32.64;26.38;98184.53;4979586;28;20121;-60
2022/05/15 10:14:52;;;;;;;6.87;2.70;;;;;;;34.02;25.75;98179.88;4978297;28;20073;-57
2022/05/15 10:17:20;;;;;;;6.93;2.17;;;;;;;34.33;25.89;98188.19;4980570;28;20075;-56
2022/05/15 10:20:10;;;;;;;6.50;2.38;;;;;;;32.53;26.64;98184.22;4983766;28;20115;-54
2022/05/15 10:22:59;;;;;;;7.82;2.53;;;;;;;34.55;26.20;98179.81;4981522;28;20527;-56
2022/05/15 10:25:38;;;;;;;5.70;2.70;;;;;;;32.78;29.27;98179.19;4985430;28;20034;-56
2022/05/15 10:28:15;;;;;;;5.70;2.40;;;;;;;32.55;28.49;98180.31;4979290;28;20024;-57
2022/05/15 10:31:07;;;;;;;6.95;2.70;;;;;;;32.20;28.72;98177.63;4982156;28;20046;-56
2022/05/15 10:33:39;;;;;;;8.57;2.90;;;;;;;32.52;28.77;98177.19;4983051;28;20027;-54
2022/05/15 10:36:24;;;;;;;7.15;2.70;;;;;;;33.23;27.52;98166.91;4980964;28;20116;-55
2022/05/15 10:39:04;;;;;;;6.80;2.55;;;;;;;32.36;27.08;98171.06;4982421;28;20030;-54
2022/05/15 10:41:51;;;;;;;5.37;2.30;;;;;;;30.80;28.87;98160.00;4982614;28;20118;-55
2022/05/15 10:44:39;;;;;;;7.85;2.97;;;;;;;31.22;29.47;98161.13;4982843;28;20265;-57
2022/05/15 10:47:13;;;;;;;9.60;3.17;;;;;;;30.79;29.01;98152.97;4982131;28;20042;-55
2022/05/15 10:50:18;;;;;;;9.60;3.28;;;;;;;33.12;27.82;98156.72;4982967;28;20515;-55
2022/05/15 10:59:51;;;;;;;6.80;2.60;;;;;;;32.14;28.53;98140.59;4982549;28;20029;-55
2022/05/15 11:02:48;;;;;;;8.60;3.10;;;;;;;31.81;27.65;98138.47;4982765;28;20100;-57
2022/05/15 11:05:26;;;;;;;9.48;2.60;;;;;;;32.49;25.72;98135.19;4981051;28;20022;-55
2022/05/15 11:08:01;;;;;;;8.57;2.83;;;;;;;31.07;26.52;98126.16;4981179;28;20443;-58
2022/05/15 11:10:53;;;;;;;11.30;3.25;;;;;;;31.35;27.31;98125.41;4981824;28;20049;-56
2022/05/15 11:13:20;;;;;;;14.13;3.20;;;;;;;31.81;26.03;98124.16;4982855;28;20023;-57
2022/05/15 11:16:03;;;;;;;9.13;3.33;;;;;;;31.84;26.48;98119.22;4982032;28;20038;-56
2022/05/15 11:19:03;;;;;;;7.28;2.45;;;;;;;30.74;27.80;98117.69;4982376;28;20038;-54
2022/05/15 11:21:42;;;;;;;10.05;2.80;;;;;;;29.97;29.30;98114.34;4980305;28;20452;-55
2022/05/15 11:24:09;;;;;;;8.98;2.92;;;;;;;31.66;27.94;98111.59;4980793;28;20056;-57
2022/05/15 11:26:41;;;;;;;11.43;2.88;;;;;;;31.00;27.79;98111.78;4980234;28;20034;-54
2022/05/15 11:29:12;;;;;;;8.23;2.72;;;;;;;29.61;29.09;98122.22;4981073;28;20033;-57
2022/05/15 11:31:43;;;;;;;9.23;2.90;;;;;;;30.69;27.13;98109.34;4980391;28;20045;-57
2022/05/15 11:34:09;;;;;;;10.50;3.05;;;;;;;30.94;27.50;98108.00;4981309;28;20284;-60
2022/05/15 11:36:48;;;;;;;10.98;3.50;;;;;;;29.55;28.66;98093.41;4978641;28;20420;-56
2022/05/15 11:39:13;;;;;;;10.18;3.28;;;;;;;30.14;28.97;98096.22;4980157;28;20038;-58
2022/05/15 11:41:44;;;;;;;8.83;2.80;;;;;;;30.43;27.02;98099.91;4980185;28;20034;-58
2022/05/15 11:44:20;;;;;;;8.82;2.92;;;;;;;29.24;28.40;98098.88;4981411;28;20026;-54
2022/05/15 11:46:45;;;;;;;13.20;3.50;;;;;;;29.36;27.90;98095.59;4980093;28;20096;-56
2022/05/15 11:49:22;;;;;;;12.43;3.55;;;;;;;29.73;27.51;98091.22;4981079;28;20026;-56
2022/05/15 11:52:19;;;;;;;9.73;3.10;;;;;;;29.33;27.88;98095.94;4993331;28;20034;-55